sensor_id;sensor_type;location;lat;lon;timestamp;P1;durP1;ratioP1;P2;durP2;ratioP2
34489;SDS011;20730;49.372;7.324;2023-02-11T00:00:14;63.78;;;32.25;;
34489;SDS011;20730;49.372;7.324;2023-02-11T00:02:41;66.22;;;33.60;;
34489;SDS011;20730;49.372;7.324;2023-02-11T00:05:12;67.38;;;32.33;;
34489;SDS011;20730;49.372;7.324;2023-02-11T00:07:39;62.50;;;31.08;;
34489;SDS011;20730;49.372;7.324;2023-02-11T00:10:06;65.82;;;32.33;;
34489;SDS011;20730;49.372;7.324;2023-02-11T00:12:34;68.13;;;32.40;;
34489;SDS011;20730;49.372;7.324;2023-02-11T00:15:01;68.18;;;32.30;;
34489;SDS011;20730;49.372;7.324;2023-02-11T00:17:29;65.10;;;31.48;;
34489;SDS011;20730;49.372;7.324;2023-02-11T00:19:55;69.97;;;33.38;;
34489;SDS011;20730;49.372;7.324;2023-02-11T00:22:22;64.97;;;31.23;;
34489;SDS011;20730;49.372;7.324;2023-02-11T00:24:49;62.38;;;31.35;;
34489;SDS011;20730;49.372;7.324;2023-02-11T00:27:16;64.47;;;30.98;;
34489;SDS011;20730;49.372;7.324;2023-02-11T00:29:43;67.07;;;33.38;;
34489;SDS011;20730;49.372;7.324;2023-02-11T00:32:10;71.50;;;33.25;;
34489;SDS011;20730;49.372;7.324;2023-02-11T00:34:36;67.78;;;33.25;;
34489;SDS011;20730;49.372;7.324;2023-02-11T00:37:04;67.07;;;32.10;;
34489;SDS011;20730;49.372;7.324;2023-02-11T00:39:32;71.20;;;34.00;;
34489;SDS011;20730;49.372;7.324;2023-02-11T00:41:59;66.35;;;32.63;;
34489;SDS011;20730;49.372;7.324;2023-02-11T00:44:26;64.93;;;33.05;;
34489;SDS011;20730;49.372;7.324;2023-02-11T00:46:52;69.30;;;32.67;;
34489;SDS011;20730;49.372;7.324;2023-02-11T00:49:19;64.18;;;31.48;;
34489;SDS011;20730;49.372;7.324;2023-02-11T00:51:47;60.65;;;30.80;;
34489;SDS011;20730;49.372;7.324;2023-02-11T00:54:13;65.35;;;31.92;;
34489;SDS011;20730;49.372;7.324;2023-02-11T00:56:40;62.03;;;30.80;;
34489;SDS011;20730;49.372;7.324;2023-02-11T00:59:07;62.28;;;31.65;;
34489;SDS011;20730;49.372;7.324;2023-02-11T01:01:34;62.80;;;31.08;;
34489;SDS011;20730;49.372;7.324;2023-02-11T01:04:01;68.43;;;31.63;;
34489;SDS011;20730;49.372;7.324;2023-02-11T01:06:28;60.38;;;31.05;;
34489;SDS011;20730;49.372;7.324;2023-02-11T01:08:54;59.85;;;30.38;;
34489;SDS011;20730;49.372;7.324;2023-02-11T01:11:21;64.53;;;31.15;;
34489;SDS011;20730;49.372;7.324;2023-02-11T01:13:48;62.67;;;31.05;;
34489;SDS011;20730;49.372;7.324;2023-02-11T01:16:15;66.88;;;32.15;;
34489;SDS011;20730;49.372;7.324;2023-02-11T01:18:44;62.08;;;30.98;;
34489;SDS011;20730;49.372;7.324;2023-02-11T01:21:11;62.13;;;32.10;;
34489;SDS011;20730;49.372;7.324;2023-02-11T01:23:37;63.08;;;31.52;;
34489;SDS011;20730;49.372;7.324;2023-02-11T01:26:04;65.72;;;30.92;;
34489;SDS011;20730;49.372;7.324;2023-02-11T01:28:31;63.20;;;31.33;;
34489;SDS011;20730;49.372;7.324;2023-02-11T01:30:59;61.78;;;30.52;;
34489;SDS011;20730;49.372;7.324;2023-02-11T01:33:27;63.60;;;31.77;;
34489;SDS011;20730;49.372;7.324;2023-02-11T01:35:53;59.17;;;30.27;;
34489;SDS011;20730;49.372;7.324;2023-02-11T01:38:21;61.25;;;30.70;;
34489;SDS011;20730;49.372;7.324;2023-02-11T01:40:58;64.45;;;30.85;;
34489;SDS011;20730;49.372;7.324;2023-02-11T01:43:31;56.30;;;30.42;;
34489;SDS011;20730;49.372;7.324;2023-02-11T01:48:47;55.40;;;29.23;;
34489;SDS011;20730;49.372;7.324;2023-02-11T01:51:20;62.25;;;30.27;;
34489;SDS011;20730;49.372;7.324;2023-02-11T01:53:49;63.13;;;29.30;;
34489;SDS011;20730;49.372;7.324;2023-02-11T01:56:36;68.35;;;31.30;;
34489;SDS011;20730;49.372;7.324;2023-02-11T01:59:26;61.20;;;30.40;;
34489;SDS011;20730;49.372;7.324;2023-02-11T02:01:59;66.03;;;29.75;;
34489;SDS011;20730;49.372;7.324;2023-02-11T02:04:30;58.00;;;29.13;;
34489;SDS011;20730;49.372;7.324;2023-02-11T02:07:00;56.25;;;29.73;;
34489;SDS011;20730;49.372;7.324;2023-02-11T02:09:31;57.10;;;28.80;;
34489;SDS011;20730;49.372;7.324;2023-02-11T02:12:02;63.97;;;29.92;;
34489;SDS011;20730;49.372;7.324;2023-02-11T02:14:29;57.78;;;30.02;;
34489;SDS011;20730;49.372;7.324;2023-02-11T02:16:56;61.92;;;31.60;;
34489;SDS011;20730;49.372;7.324;2023-02-11T02:34:25;54.10;;;28.17;;
34489;SDS011;20730;49.372;7.324;2023-02-11T02:37:11;58.22;;;29.30;;
34489;SDS011;20730;49.372;7.324;2023-02-11T02:39:42;59.08;;;29.92;;
34489;SDS011;20730;49.372;7.324;2023-02-11T02:42:11;60.55;;;28.58;;
34489;SDS011;20730;49.372;7.324;2023-02-11T02:44:38;56.15;;;27.67;;
34489;SDS011;20730;49.372;7.324;2023-02-11T02:47:05;52.03;;;25.80;;
34489;SDS011;20730;49.372;7.324;2023-02-11T02:49:31;51.63;;;26.38;;
34489;SDS011;20730;49.372;7.324;2023-02-11T03:01:22;48.03;;;23.73;;
34489;SDS011;20730;49.372;7.324;2023-02-11T03:06:04;45.72;;;24.02;;
34489;SDS011;20730;49.372;7.324;2023-02-11T03:08:45;46.65;;;24.85;;
34489;SDS011;20730;49.372;7.324;2023-02-11T03:11:14;44.63;;;24.13;;
34489;SDS011;20730;49.372;7.324;2023-02-11T03:13:43;43.67;;;24.63;;
34489;SDS011;20730;49.372;7.324;2023-02-11T03:16:11;50.05;;;25.45;;
34489;SDS011;20730;49.372;7.324;2023-02-11T03:18:45;46.55;;;23.85;;
34489;SDS011;20730;49.372;7.324;2023-02-11T03:21:15;49.50;;;24.23;;
34489;SDS011;20730;49.372;7.324;2023-02-11T03:26:12;42.25;;;23.05;;
34489;SDS011;20730;49.372;7.324;2023-02-11T03:34:26;45.83;;;23.25;;
34489;SDS011;20730;49.372;7.324;2023-02-11T03:36:56;41.85;;;22.67;;
34489;SDS011;20730;49.372;7.324;2023-02-11T03:39:29;44.08;;;23.40;;
34489;SDS011;20730;49.372;7.324;2023-02-11T03:42:00;44.20;;;23.33;;
34489;SDS011;20730;49.372;7.324;2023-02-11T03:44:29;43.05;;;22.85;;
34489;SDS011;20730;49.372;7.324;2023-02-11T03:49:25;40.92;;;21.88;;
34489;SDS011;20730;49.372;7.324;2023-02-11T03:51:52;42.90;;;22.25;;
34489;SDS011;20730;49.372;7.324;2023-02-11T03:54:23;44.95;;;23.27;;
34489;SDS011;20730;49.372;7.324;2023-02-11T03:56:54;42.95;;;23.23;;
34489;SDS011;20730;49.372;7.324;2023-02-11T03:59:22;46.03;;;23.23;;
34489;SDS011;20730;49.372;7.324;2023-02-11T04:01:49;41.50;;;23.00;;
34489;SDS011;20730;49.372;7.324;2023-02-11T04:04:16;47.65;;;24.13;;
34489;SDS011;20730;49.372;7.324;2023-02-11T04:06:43;40.80;;;22.73;;
34489;SDS011;20730;49.372;7.324;2023-02-11T04:09:10;44.03;;;22.33;;
34489;SDS011;20730;49.372;7.324;2023-02-11T04:11:36;42.67;;;23.13;;
34489;SDS011;20730;49.372;7.324;2023-02-11T04:14:03;46.35;;;22.88;;
34489;SDS011;20730;49.372;7.324;2023-02-11T04:16:30;45.70;;;22.52;;
34489;SDS011;20730;49.372;7.324;2023-02-11T04:18:57;45.05;;;24.20;;
34489;SDS011;20730;49.372;7.324;2023-02-11T04:21:23;46.40;;;23.73;;
34489;SDS011;20730;49.372;7.324;2023-02-11T04:23:50;49.95;;;23.23;;
34489;SDS011;20730;49.372;7.324;2023-02-11T04:26:17;45.95;;;23.33;;
34489;SDS011;20730;49.372;7.324;2023-02-11T04:28:43;43.75;;;24.45;;
34489;SDS011;20730;49.372;7.324;2023-02-11T04:31:10;42.33;;;23.33;;
34489;SDS011;20730;49.372;7.324;2023-02-11T04:33:38;40.88;;;22.13;;
34489;SDS011;20730;49.372;7.324;2023-02-11T04:36:04;46.42;;;23.58;;
34489;SDS011;20730;49.372;7.324;2023-02-11T04:38:31;47.38;;;23.40;;
34489;SDS011;20730;49.372;7.324;2023-02-11T04:40:58;49.63;;;24.08;;
34489;SDS011;20730;49.372;7.324;2023-02-11T04:43:25;43.22;;;23.35;;
34489;SDS011;20730;49.372;7.324;2023-02-11T04:45:55;44.15;;;22.73;;
34489;SDS011;20730;49.372;7.324;2023-02-11T04:48:22;40.80;;;23.00;;
34489;SDS011;20730;49.372;7.324;2023-02-11T04:50:49;44.88;;;22.10;;
34489;SDS011;20730;49.372;7.324;2023-02-11T04:53:15;40.85;;;21.83;;
34489;SDS011;20730;49.372;7.324;2023-02-11T04:55:42;43.10;;;21.85;;
34489;SDS011;20730;49.372;7.324;2023-02-11T04:58:09;44.35;;;22.58;;
34489;SDS011;20730;49.372;7.324;2023-02-11T05:00:35;40.67;;;21.63;;
34489;SDS011;20730;49.372;7.324;2023-02-11T05:03:02;43.50;;;22.08;;
34489;SDS011;20730;49.372;7.324;2023-02-11T05:05:29;42.00;;;23.42;;
34489;SDS011;20730;49.372;7.324;2023-02-11T05:07:55;45.70;;;24.38;;
34489;SDS011;20730;49.372;7.324;2023-02-11T05:10:22;48.03;;;23.58;;
34489;SDS011;20730;49.372;7.324;2023-02-11T05:12:49;42.67;;;22.98;;
34489;SDS011;20730;49.372;7.324;2023-02-11T05:15:16;48.75;;;24.38;;
34489;SDS011;20730;49.372;7.324;2023-02-11T05:17:42;43.50;;;23.58;;
34489;SDS011;20730;49.372;7.324;2023-02-11T05:20:09;46.83;;;25.83;;
34489;SDS011;20730;49.372;7.324;2023-02-11T05:22:36;52.17;;;26.05;;
34489;SDS011;20730;49.372;7.324;2023-02-11T05:25:02;50.33;;;25.77;;
34489;SDS011;20730;49.372;7.324;2023-02-11T05:27:29;55.65;;;27.25;;
34489;SDS011;20730;49.372;7.324;2023-02-11T05:29:56;51.20;;;26.05;;
34489;SDS011;20730;49.372;7.324;2023-02-11T05:32:22;48.42;;;25.48;;
34489;SDS011;20730;49.372;7.324;2023-02-11T05:34:49;54.03;;;27.20;;
34489;SDS011;20730;49.372;7.324;2023-02-11T05:37:16;48.80;;;25.13;;
34489;SDS011;20730;49.372;7.324;2023-02-11T05:39:43;49.15;;;25.85;;
34489;SDS011;20730;49.372;7.324;2023-02-11T05:42:09;49.17;;;26.15;;
34489;SDS011;20730;49.372;7.324;2023-02-11T05:44:36;49.45;;;25.73;;
34489;SDS011;20730;49.372;7.324;2023-02-11T05:47:03;48.92;;;25.98;;
34489;SDS011;20730;49.372;7.324;2023-02-11T05:49:29;50.28;;;26.33;;
34489;SDS011;20730;49.372;7.324;2023-02-11T05:51:56;55.33;;;24.92;;
34489;SDS011;20730;49.372;7.324;2023-02-11T05:54:23;49.30;;;25.00;;
34489;SDS011;20730;49.372;7.324;2023-02-11T05:56:49;47.90;;;24.90;;
34489;SDS011;20730;49.372;7.324;2023-02-11T05:59:16;47.75;;;25.75;;
34489;SDS011;20730;49.372;7.324;2023-02-11T06:01:43;48.40;;;25.45;;
34489;SDS011;20730;49.372;7.324;2023-02-11T06:04:09;48.55;;;25.90;;
34489;SDS011;20730;49.372;7.324;2023-02-11T06:06:36;52.58;;;26.08;;
34489;SDS011;20730;49.372;7.324;2023-02-11T06:09:03;52.33;;;25.92;;
34489;SDS011;20730;49.372;7.324;2023-02-11T06:11:29;51.22;;;25.48;;
34489;SDS011;20730;49.372;7.324;2023-02-11T06:13:56;45.83;;;25.20;;
34489;SDS011;20730;49.372;7.324;2023-02-11T06:16:23;46.25;;;25.88;;
34489;SDS011;20730;49.372;7.324;2023-02-11T06:18:49;45.28;;;26.10;;
34489;SDS011;20730;49.372;7.324;2023-02-11T06:21:16;49.78;;;26.20;;
34489;SDS011;20730;49.372;7.324;2023-02-11T06:23:43;51.88;;;27.13;;
34489;SDS011;20730;49.372;7.324;2023-02-11T06:26:15;52.10;;;27.35;;
34489;SDS011;20730;49.372;7.324;2023-02-11T06:28:46;54.92;;;26.30;;
34489;SDS011;20730;49.372;7.324;2023-02-11T06:31:13;48.58;;;25.98;;
34489;SDS011;20730;49.372;7.324;2023-02-11T06:33:40;47.83;;;25.92;;
34489;SDS011;20730;49.372;7.324;2023-02-11T06:36:12;45.58;;;25.95;;
34489;SDS011;20730;49.372;7.324;2023-02-11T06:38:40;49.90;;;25.15;;
34489;SDS011;20730;49.372;7.324;2023-02-11T06:41:10;51.75;;;27.33;;
34489;SDS011;20730;49.372;7.324;2023-02-11T06:43:37;48.25;;;25.13;;
34489;SDS011;20730;49.372;7.324;2023-02-11T06:46:05;54.60;;;25.75;;
34489;SDS011;20730;49.372;7.324;2023-02-11T06:48:32;46.40;;;24.48;;
34489;SDS011;20730;49.372;7.324;2023-02-11T06:51:02;50.30;;;25.17;;
34489;SDS011;20730;49.372;7.324;2023-02-11T06:53:30;51.42;;;26.00;;
34489;SDS011;20730;49.372;7.324;2023-02-11T06:56:04;49.63;;;27.73;;
34489;SDS011;20730;49.372;7.324;2023-02-11T06:58:32;47.22;;;24.65;;
34489;SDS011;20730;49.372;7.324;2023-02-11T07:00:59;45.50;;;25.33;;
34489;SDS011;20730;49.372;7.324;2023-02-11T07:03:25;44.78;;;24.05;;
34489;SDS011;20730;49.372;7.324;2023-02-11T07:05:52;49.03;;;24.00;;
34489;SDS011;20730;49.372;7.324;2023-02-11T07:08:19;46.60;;;25.73;;
34489;SDS011;20730;49.372;7.324;2023-02-11T07:10:45;43.80;;;22.48;;
34489;SDS011;20730;49.372;7.324;2023-02-11T07:13:12;46.30;;;23.52;;
34489;SDS011;20730;49.372;7.324;2023-02-11T07:15:38;44.47;;;23.50;;
34489;SDS011;20730;49.372;7.324;2023-02-11T07:18:05;43.50;;;23.17;;
34489;SDS011;20730;49.372;7.324;2023-02-11T07:20:32;46.58;;;24.45;;
34489;SDS011;20730;49.372;7.324;2023-02-11T07:22:58;44.25;;;22.27;;
34489;SDS011;20730;49.372;7.324;2023-02-11T07:25:25;43.03;;;23.42;;
34489;SDS011;20730;49.372;7.324;2023-02-11T07:27:52;41.58;;;22.38;;
34489;SDS011;20730;49.372;7.324;2023-02-11T07:30:18;41.00;;;22.50;;
34489;SDS011;20730;49.372;7.324;2023-02-11T07:32:45;38.33;;;20.55;;
34489;SDS011;20730;49.372;7.324;2023-02-11T07:35:12;40.33;;;21.00;;
34489;SDS011;20730;49.372;7.324;2023-02-11T07:37:40;39.47;;;20.88;;
34489;SDS011;20730;49.372;7.324;2023-02-11T07:40:07;40.63;;;21.75;;
34489;SDS011;20730;49.372;7.324;2023-02-11T07:42:34;38.63;;;21.35;;
34489;SDS011;20730;49.372;7.324;2023-02-11T07:45:01;41.05;;;22.25;;
34489;SDS011;20730;49.372;7.324;2023-02-11T07:47:27;39.72;;;20.98;;
34489;SDS011;20730;49.372;7.324;2023-02-11T07:49:54;34.45;;;19.33;;
34489;SDS011;20730;49.372;7.324;2023-02-11T07:52:22;43.10;;;21.17;;
34489;SDS011;20730;49.372;7.324;2023-02-11T07:54:48;39.33;;;20.58;;
34489;SDS011;20730;49.372;7.324;2023-02-11T07:57:15;37.53;;;19.80;;
34489;SDS011;20730;49.372;7.324;2023-02-11T07:59:42;37.28;;;21.05;;
34489;SDS011;20730;49.372;7.324;2023-02-11T08:02:08;36.88;;;20.85;;
34489;SDS011;20730;49.372;7.324;2023-02-11T08:04:35;37.80;;;19.95;;
34489;SDS011;20730;49.372;7.324;2023-02-11T08:07:02;43.47;;;21.50;;
34489;SDS011;20730;49.372;7.324;2023-02-11T08:09:28;41.45;;;20.65;;
34489;SDS011;20730;49.372;7.324;2023-02-11T08:11:59;38.90;;;20.25;;
34489;SDS011;20730;49.372;7.324;2023-02-11T08:14:26;38.55;;;20.48;;
34489;SDS011;20730;49.372;7.324;2023-02-11T08:16:53;38.42;;;20.05;;
34489;SDS011;20730;49.372;7.324;2023-02-11T08:19:20;44.58;;;21.00;;
34489;SDS011;20730;49.372;7.324;2023-02-11T08:21:47;37.05;;;19.83;;
34489;SDS011;20730;49.372;7.324;2023-02-11T08:24:13;58.22;;;28.50;;
34489;SDS011;20730;49.372;7.324;2023-02-11T08:26:40;39.05;;;21.83;;
34489;SDS011;20730;49.372;7.324;2023-02-11T08:29:08;38.78;;;21.20;;
34489;SDS011;20730;49.372;7.324;2023-02-11T08:31:38;41.22;;;21.80;;
34489;SDS011;20730;49.372;7.324;2023-02-11T08:34:06;36.90;;;21.05;;
34489;SDS011;20730;49.372;7.324;2023-02-11T08:36:34;40.40;;;21.13;;
34489;SDS011;20730;49.372;7.324;2023-02-11T08:39:03;42.13;;;22.27;;
34489;SDS011;20730;49.372;7.324;2023-02-11T08:41:45;42.53;;;21.88;;
34489;SDS011;20730;49.372;7.324;2023-02-11T08:44:22;40.55;;;21.98;;
34489;SDS011;20730;49.372;7.324;2023-02-11T08:46:49;39.63;;;20.92;;
34489;SDS011;20730;49.372;7.324;2023-02-11T08:49:16;40.05;;;20.58;;
34489;SDS011;20730;49.372;7.324;2023-02-11T08:51:43;41.10;;;20.50;;
34489;SDS011;20730;49.372;7.324;2023-02-11T08:54:10;43.10;;;21.67;;
34489;SDS011;20730;49.372;7.324;2023-02-11T08:56:37;34.70;;;20.88;;
34489;SDS011;20730;49.372;7.324;2023-02-11T08:59:04;37.85;;;20.40;;
34489;SDS011;20730;49.372;7.324;2023-02-11T09:01:31;35.42;;;20.30;;
34489;SDS011;20730;49.372;7.324;2023-02-11T09:03:58;38.78;;;20.63;;
34489;SDS011;20730;49.372;7.324;2023-02-11T09:06:26;40.72;;;22.13;;
34489;SDS011;20730;49.372;7.324;2023-02-11T09:08:54;38.10;;;21.25;;
34489;SDS011;20730;49.372;7.324;2023-02-11T09:11:24;36.28;;;20.45;;
34489;SDS011;20730;49.372;7.324;2023-02-11T09:13:53;39.30;;;21.30;;
34489;SDS011;20730;49.372;7.324;2023-02-11T09:16:21;37.85;;;18.85;;
34489;SDS011;20730;49.372;7.324;2023-02-11T09:18:49;36.75;;;19.70;;
34489;SDS011;20730;49.372;7.324;2023-02-11T09:21:17;36.88;;;20.23;;
34489;SDS011;20730;49.372;7.324;2023-02-11T09:23:44;36.67;;;18.67;;
34489;SDS011;20730;49.372;7.324;2023-02-11T09:28:40;38.70;;;21.65;;
34489;SDS011;20730;49.372;7.324;2023-02-11T09:31:08;40.08;;;20.33;;
34489;SDS011;20730;49.372;7.324;2023-02-11T09:33:37;37.70;;;20.00;;
34489;SDS011;20730;49.372;7.324;2023-02-11T09:36:04;39.58;;;19.77;;
34489;SDS011;20730;49.372;7.324;2023-02-11T09:38:32;40.03;;;20.88;;
34489;SDS011;20730;49.372;7.324;2023-02-11T09:40:58;38.83;;;21.52;;
34489;SDS011;20730;49.372;7.324;2023-02-11T09:43:30;36.75;;;20.02;;
34489;SDS011;20730;49.372;7.324;2023-02-11T09:46:01;42.05;;;22.30;;
34489;SDS011;20730;49.372;7.324;2023-02-11T09:48:29;39.00;;;20.67;;
34489;SDS011;20730;49.372;7.324;2023-02-11T09:51:03;43.85;;;22.00;;
34489;SDS011;20730;49.372;7.324;2023-02-11T09:53:34;38.45;;;20.25;;
34489;SDS011;20730;49.372;7.324;2023-02-11T09:56:08;42.40;;;21.25;;
34489;SDS011;20730;49.372;7.324;2023-02-11T09:58:40;40.35;;;20.98;;
34489;SDS011;20730;49.372;7.324;2023-02-11T10:01:15;43.08;;;20.15;;
34489;SDS011;20730;49.372;7.324;2023-02-11T10:03:59;40.60;;;20.67;;
34489;SDS011;20730;49.372;7.324;2023-02-11T10:09:16;44.60;;;22.27;;
34489;SDS011;20730;49.372;7.324;2023-02-11T10:20:38;41.15;;;21.50;;
34489;SDS011;20730;49.372;7.324;2023-02-11T10:23:25;40.40;;;20.30;;
34489;SDS011;20730;49.372;7.324;2023-02-11T10:28:25;36.30;;;19.23;;
34489;SDS011;20730;49.372;7.324;2023-02-11T10:31:15;40.13;;;20.52;;
34489;SDS011;20730;49.372;7.324;2023-02-11T10:36:23;45.47;;;20.77;;
34489;SDS011;20730;49.372;7.324;2023-02-11T10:38:53;38.10;;;19.45;;
34489;SDS011;20730;49.372;7.324;2023-02-11T10:41:23;37.28;;;19.23;;
34489;SDS011;20730;49.372;7.324;2023-02-11T10:43:53;37.38;;;19.67;;
34489;SDS011;20730;49.372;7.324;2023-02-11T10:46:21;41.55;;;20.60;;
34489;SDS011;20730;49.372;7.324;2023-02-11T10:48:52;37.72;;;18.70;;
34489;SDS011;20730;49.372;7.324;2023-02-11T10:51:26;33.65;;;19.35;;
34489;SDS011;20730;49.372;7.324;2023-02-11T10:56:36;37.47;;;20.08;;
34489;SDS011;20730;49.372;7.324;2023-02-11T10:59:03;40.47;;;21.52;;
34489;SDS011;20730;49.372;7.324;2023-02-11T11:01:51;34.20;;;19.20;;
34489;SDS011;20730;49.372;7.324;2023-02-11T11:06:55;36.03;;;19.80;;
34489;SDS011;20730;49.372;7.324;2023-02-11T11:09:29;41.05;;;20.15;;
34489;SDS011;20730;49.372;7.324;2023-02-11T11:11:56;37.60;;;21.17;;
34489;SDS011;20730;49.372;7.324;2023-02-11T11:14:23;35.95;;;20.17;;
34489;SDS011;20730;49.372;7.324;2023-02-11T11:16:54;37.15;;;19.25;;
34489;SDS011;20730;49.372;7.324;2023-02-11T11:19:21;35.72;;;19.13;;
34489;SDS011;20730;49.372;7.324;2023-02-11T11:21:54;34.33;;;18.02;;
34489;SDS011;20730;49.372;7.324;2023-02-11T11:24:23;32.25;;;17.98;;
34489;SDS011;20730;49.372;7.324;2023-02-11T11:26:54;34.70;;;19.13;;
34489;SDS011;20730;49.372;7.324;2023-02-11T11:31:50;34.45;;;18.23;;
34489;SDS011;20730;49.372;7.324;2023-02-11T11:36:48;38.30;;;19.48;;
34489;SDS011;20730;49.372;7.324;2023-02-11T11:41:53;32.88;;;18.08;;
34489;SDS011;20730;49.372;7.324;2023-02-11T11:49:38;35.40;;;18.33;;
34489;SDS011;20730;49.372;7.324;2023-02-11T11:55:18;35.22;;;18.85;;
34489;SDS011;20730;49.372;7.324;2023-02-11T11:57:47;37.70;;;18.50;;
34489;SDS011;20730;49.372;7.324;2023-02-11T12:00:17;32.28;;;18.38;;
34489;SDS011;20730;49.372;7.324;2023-02-11T12:05:27;34.28;;;17.75;;
34489;SDS011;20730;49.372;7.324;2023-02-11T12:08:12;39.17;;;19.25;;
34489;SDS011;20730;49.372;7.324;2023-02-11T12:18:50;51.90;;;23.52;;
34489;SDS011;20730;49.372;7.324;2023-02-11T12:26:59;38.40;;;20.75;;
34489;SDS011;20730;49.372;7.324;2023-02-11T12:32:06;41.63;;;20.02;;
34489;SDS011;20730;49.372;7.324;2023-02-11T12:42:49;39.65;;;20.67;;
34489;SDS011;20730;49.372;7.324;2023-02-11T12:54:30;41.67;;;20.73;;
34489;SDS011;20730;49.372;7.324;2023-02-11T13:00:02;38.92;;;20.75;;
34489;SDS011;20730;49.372;7.324;2023-02-11T13:05:19;41.75;;;21.38;;
34489;SDS011;20730;49.372;7.324;2023-02-11T13:07:54;41.30;;;20.92;;
34489;SDS011;20730;49.372;7.324;2023-02-11T13:10:35;34.60;;;18.60;;
34489;SDS011;20730;49.372;7.324;2023-02-11T13:13:04;36.28;;;19.65;;
34489;SDS011;20730;49.372;7.324;2023-02-11T13:15:42;38.20;;;19.67;;
34489;SDS011;20730;49.372;7.324;2023-02-11T13:18:21;35.83;;;20.13;;
34489;SDS011;20730;49.372;7.324;2023-02-11T13:20:55;36.30;;;18.95;;
34489;SDS011;20730;49.372;7.324;2023-02-11T13:23:47;36.42;;;19.70;;
34489;SDS011;20730;49.372;7.324;2023-02-11T13:31:53;35.38;;;19.02;;
34489;SDS011;20730;49.372;7.324;2023-02-11T13:34:25;36.25;;;18.85;;
34489;SDS011;20730;49.372;7.324;2023-02-11T13:36:54;41.63;;;20.27;;
34489;SDS011;20730;49.372;7.324;2023-02-11T13:39:21;38.65;;;20.10;;
34489;SDS011;20730;49.372;7.324;2023-02-11T13:41:48;39.40;;;20.45;;
34489;SDS011;20730;49.372;7.324;2023-02-11T13:44:19;40.45;;;20.25;;
34489;SDS011;20730;49.372;7.324;2023-02-11T13:49:29;36.65;;;20.17;;
34489;SDS011;20730;49.372;7.324;2023-02-11T13:51:57;35.45;;;19.67;;
34489;SDS011;20730;49.372;7.324;2023-02-11T13:54:26;37.35;;;19.17;;
34489;SDS011;20730;49.372;7.324;2023-02-11T13:57:18;39.70;;;19.88;;
34489;SDS011;20730;49.372;7.324;2023-02-11T13:59:54;39.85;;;19.88;;
34489;SDS011;20730;49.372;7.324;2023-02-11T14:02:26;41.05;;;20.13;;
34489;SDS011;20730;49.372;7.324;2023-02-11T14:10:54;36.40;;;20.02;;
34489;SDS011;20730;49.372;7.324;2023-02-11T14:16:18;37.80;;;20.73;;
34489;SDS011;20730;49.372;7.324;2023-02-11T14:19:04;42.17;;;20.23;;
34489;SDS011;20730;49.372;7.324;2023-02-11T14:21:32;38.38;;;20.33;;
34489;SDS011;20730;49.372;7.324;2023-02-11T14:26:30;40.53;;;22.00;;
34489;SDS011;20730;49.372;7.324;2023-02-11T14:40:28;34.42;;;19.23;;
34489;SDS011;20730;49.372;7.324;2023-02-11T14:43:00;36.30;;;18.80;;
34489;SDS011;20730;49.372;7.324;2023-02-11T14:45:33;38.15;;;18.98;;
34489;SDS011;20730;49.372;7.324;2023-02-11T14:53:06;35.03;;;19.42;;
34489;SDS011;20730;49.372;7.324;2023-02-11T14:55:34;35.25;;;19.13;;
34489;SDS011;20730;49.372;7.324;2023-02-11T14:58:15;41.67;;;22.33;;
34489;SDS011;20730;49.372;7.324;2023-02-11T15:03:27;43.30;;;19.93;;
34489;SDS011;20730;49.372;7.324;2023-02-11T15:06:05;39.53;;;20.13;;
34489;SDS011;20730;49.372;7.324;2023-02-11T15:08:40;40.22;;;19.92;;
34489;SDS011;20730;49.372;7.324;2023-02-11T15:11:11;41.92;;;19.65;;
34489;SDS011;20730;49.372;7.324;2023-02-11T15:13:39;39.50;;;20.33;;
34489;SDS011;20730;49.372;7.324;2023-02-11T15:16:13;39.58;;;20.63;;
34489;SDS011;20730;49.372;7.324;2023-02-11T15:18:48;43.75;;;22.10;;
34489;SDS011;20730;49.372;7.324;2023-02-11T15:21:27;34.58;;;19.75;;
34489;SDS011;20730;49.372;7.324;2023-02-11T15:26:44;35.65;;;20.52;;
34489;SDS011;20730;49.372;7.324;2023-02-11T15:29:15;39.00;;;20.55;;
34489;SDS011;20730;49.372;7.324;2023-02-11T15:31:41;37.70;;;20.05;;
34489;SDS011;20730;49.372;7.324;2023-02-11T15:34:08;36.92;;;19.67;;
34489;SDS011;20730;49.372;7.324;2023-02-11T15:36:36;34.28;;;19.27;;
34489;SDS011;20730;49.372;7.324;2023-02-11T15:39:16;37.20;;;19.98;;
34489;SDS011;20730;49.372;7.324;2023-02-11T15:47:47;37.45;;;19.45;;
34489;SDS011;20730;49.372;7.324;2023-02-11T15:50:21;45.90;;;20.55;;
34489;SDS011;20730;49.372;7.324;2023-02-11T15:52:49;36.72;;;19.45;;
34489;SDS011;20730;49.372;7.324;2023-02-11T15:55:17;36.08;;;19.15;;
34489;SDS011;20730;49.372;7.324;2023-02-11T15:57:54;37.80;;;19.35;;
34489;SDS011;20730;49.372;7.324;2023-02-11T16:00:22;39.65;;;19.75;;
34489;SDS011;20730;49.372;7.324;2023-02-11T16:02:50;35.03;;;18.45;;
34489;SDS011;20730;49.372;7.324;2023-02-11T16:05:25;35.80;;;19.60;;
34489;SDS011;20730;49.372;7.324;2023-02-11T16:07:56;37.35;;;19.35;;
34489;SDS011;20730;49.372;7.324;2023-02-11T16:19:00;43.85;;;22.70;;
34489;SDS011;20730;49.372;7.324;2023-02-11T16:21:06;42.65;;;21.45;;
34489;SDS011;20730;49.372;7.324;2023-02-11T16:23:41;42.30;;;22.33;;
34489;SDS011;20730;49.372;7.324;2023-02-11T16:26:11;46.80;;;22.05;;
34489;SDS011;20730;49.372;7.324;2023-02-11T16:28:46;40.50;;;21.10;;
34489;SDS011;20730;49.372;7.324;2023-02-11T16:31:13;42.67;;;23.58;;
34489;SDS011;20730;49.372;7.324;2023-02-11T16:33:40;45.40;;;22.08;;
34489;SDS011;20730;49.372;7.324;2023-02-11T16:36:13;45.75;;;22.60;;
34489;SDS011;20730;49.372;7.324;2023-02-11T16:38:42;46.78;;;22.15;;
34489;SDS011;20730;49.372;7.324;2023-02-11T16:41:09;53.15;;;22.25;;
34489;SDS011;20730;49.372;7.324;2023-02-11T16:43:40;44.78;;;22.33;;
34489;SDS011;20730;49.372;7.324;2023-02-11T16:46:06;43.92;;;22.02;;
34489;SDS011;20730;49.372;7.324;2023-02-11T16:48:34;38.08;;;20.10;;
34489;SDS011;20730;49.372;7.324;2023-02-11T16:51:01;45.03;;;22.85;;
34489;SDS011;20730;49.372;7.324;2023-02-11T16:53:28;49.40;;;24.13;;
34489;SDS011;20730;49.372;7.324;2023-02-11T16:55:55;40.85;;;20.45;;
34489;SDS011;20730;49.372;7.324;2023-02-11T16:58:21;43.13;;;21.08;;
34489;SDS011;20730;49.372;7.324;2023-02-11T17:00:48;41.58;;;21.23;;
34489;SDS011;20730;49.372;7.324;2023-02-11T17:03:18;37.67;;;20.52;;
34489;SDS011;20730;49.372;7.324;2023-02-11T17:05:47;42.63;;;20.65;;
34489;SDS011;20730;49.372;7.324;2023-02-11T17:08:21;41.38;;;21.70;;
34489;SDS011;20730;49.372;7.324;2023-02-11T17:10:48;40.17;;;20.65;;
34489;SDS011;20730;49.372;7.324;2023-02-11T17:13:15;40.40;;;20.58;;
34489;SDS011;20730;49.372;7.324;2023-02-11T17:15:42;44.85;;;21.88;;
34489;SDS011;20730;49.372;7.324;2023-02-11T17:18:11;38.22;;;20.20;;
34489;SDS011;20730;49.372;7.324;2023-02-11T17:20:39;45.95;;;21.80;;
34489;SDS011;20730;49.372;7.324;2023-02-11T17:23:06;44.17;;;22.48;;
34489;SDS011;20730;49.372;7.324;2023-02-11T17:25:33;45.33;;;22.40;;
34489;SDS011;20730;49.372;7.324;2023-02-11T17:28:06;41.85;;;21.50;;
34489;SDS011;20730;49.372;7.324;2023-02-11T17:30:33;43.53;;;22.17;;